sensor_id;sensor_type;location;lat;lon;timestamp;P1;durP1;ratioP1;P2;durP2;ratioP2
11767;SDS011;5941;57.652;12.514;2023-01-20T00:02:00;3.10;;;2.80;;
11767;SDS011;5941;57.652;12.514;2023-01-20T00:04:26;3.50;;;2.80;;
11767;SDS011;5941;57.652;12.514;2023-01-20T00:06:52;2.93;;;2.63;;
11767;SDS011;5941;57.652;12.514;2023-01-20T00:09:18;3.87;;;3.07;;
11767;SDS011;5941;57.652;12.514;2023-01-20T00:11:44;3.20;;;2.60;;
11767;SDS011;5941;57.652;12.514;2023-01-20T00:14:11;2.90;;;2.50;;
11767;SDS011;5941;57.652;12.514;2023-01-20T00:16:37;3.27;;;2.63;;
11767;SDS011;5941;57.652;12.514;2023-01-20T00:19:03;3.17;;;2.83;;
11767;SDS011;5941;57.652;12.514;2023-01-20T00:21:29;2.60;;;2.40;;
11767;SDS011;5941;57.652;12.514;2023-01-20T00:23:55;4.33;;;3.00;;
11767;SDS011;5941;57.652;12.514;2023-01-20T00:26:22;2.90;;;2.60;;
11767;SDS011;5941;57.652;12.514;2023-01-20T00:28:48;3.43;;;3.10;;
11767;SDS011;5941;57.652;12.514;2023-01-20T00:33:40;3.53;;;2.57;;
11767;SDS011;5941;57.652;12.514;2023-01-20T00:36:06;3.13;;;2.83;;
11767;SDS011;5941;57.652;12.514;2023-01-20T00:38:33;3.40;;;2.57;;
11767;SDS011;5941;57.652;12.514;2023-01-20T00:40:59;4.20;;;2.70;;
11767;SDS011;5941;57.652;12.514;2023-01-20T00:43:25;2.70;;;2.30;;
11767;SDS011;5941;57.652;12.514;2023-01-20T00:45:51;2.80;;;2.50;;
11767;SDS011;5941;57.652;12.514;2023-01-20T00:48:17;3.43;;;2.63;;
11767;SDS011;5941;57.652;12.514;2023-01-20T00:50:43;2.87;;;2.63;;
11767;SDS011;5941;57.652;12.514;2023-01-20T00:53:09;2.80;;;2.60;;
11767;SDS011;5941;57.652;12.514;2023-01-20T00:55:35;2.83;;;2.57;;
11767;SDS011;5941;57.652;12.514;2023-01-20T00:58:01;2.80;;;2.50;;
11767;SDS011;5941;57.652;12.514;2023-01-20T01:00:27;3.40;;;3.10;;
11767;SDS011;5941;57.652;12.514;2023-01-20T01:02:53;2.83;;;2.43;;
11767;SDS011;5941;57.652;12.514;2023-01-20T01:05:20;3.50;;;2.50;;
11767;SDS011;5941;57.652;12.514;2023-01-20T01:07:46;2.83;;;2.50;;
11767;SDS011;5941;57.652;12.514;2023-01-20T01:10:12;2.83;;;2.60;;
11767;SDS011;5941;57.652;12.514;2023-01-20T01:12:38;3.23;;;2.40;;
11767;SDS011;5941;57.652;12.514;2023-01-20T01:15:04;3.20;;;2.90;;
11767;SDS011;5941;57.652;12.514;2023-01-20T01:17:30;2.53;;;2.33;;
11767;SDS011;5941;57.652;12.514;2023-01-20T01:19:56;3.20;;;2.90;;
11767;SDS011;5941;57.652;12.514;2023-01-20T01:22:22;3.37;;;2.60;;
11767;SDS011;5941;57.652;12.514;2023-01-20T01:24:48;3.80;;;3.20;;
11767;SDS011;5941;57.652;12.514;2023-01-20T01:27:14;6.27;;;4.37;;
11767;SDS011;5941;57.652;12.514;2023-01-20T01:29:40;5.07;;;4.20;;
11767;SDS011;5941;57.652;12.514;2023-01-20T01:32:06;7.30;;;5.50;;
11767;SDS011;5941;57.652;12.514;2023-01-20T01:34:32;4.33;;;3.67;;
11767;SDS011;5941;57.652;12.514;2023-01-20T01:36:58;4.30;;;3.47;;
11767;SDS011;5941;57.652;12.514;2023-01-20T01:39:24;4.30;;;3.70;;
11767;SDS011;5941;57.652;12.514;2023-01-20T01:41:50;3.77;;;2.97;;
11767;SDS011;5941;57.652;12.514;2023-01-20T01:44:16;3.50;;;3.03;;
11767;SDS011;5941;57.652;12.514;2023-01-20T01:46:42;3.20;;;2.90;;
11767;SDS011;5941;57.652;12.514;2023-01-20T01:49:24;3.97;;;3.30;;
11767;SDS011;5941;57.652;12.514;2023-01-20T01:51:52;2.57;;;2.33;;
11767;SDS011;5941;57.652;12.514;2023-01-20T01:54:20;4.03;;;2.83;;
11767;SDS011;5941;57.652;12.514;2023-01-20T01:56:47;3.20;;;2.90;;
11767;SDS011;5941;57.652;12.514;2023-01-20T01:59:14;3.47;;;2.83;;
11767;SDS011;5941;57.652;12.514;2023-01-20T02:01:41;2.90;;;2.70;;
11767;SDS011;5941;57.652;12.514;2023-01-20T02:04:18;3.33;;;2.93;;
11767;SDS011;5941;57.652;12.514;2023-01-20T02:06:47;3.53;;;2.90;;
11767;SDS011;5941;57.652;12.514;2023-01-20T02:09:13;3.57;;;2.93;;
11767;SDS011;5941;57.652;12.514;2023-01-20T02:11:43;3.87;;;3.10;;
11767;SDS011;5941;57.652;12.514;2023-01-20T02:14:13;4.83;;;3.20;;
11767;SDS011;5941;57.652;12.514;2023-01-20T02:17:25;2.70;;;2.50;;
11767;SDS011;5941;57.652;12.514;2023-01-20T02:22:17;3.30;;;2.80;;
11767;SDS011;5941;57.652;12.514;2023-01-20T02:35:12;3.43;;;2.90;;
11767;SDS011;5941;57.652;12.514;2023-01-20T02:40:14;3.77;;;3.00;;
11767;SDS011;5941;57.652;12.514;2023-01-20T02:42:48;3.90;;;3.30;;
11767;SDS011;5941;57.652;12.514;2023-01-20T02:45:22;3.57;;;3.20;;
11767;SDS011;5941;57.652;12.514;2023-01-20T02:50:22;3.93;;;3.50;;
11767;SDS011;5941;57.652;12.514;2023-01-20T02:52:51;11.50;;;4.27;;
11767;SDS011;5941;57.652;12.514;2023-01-20T02:55:21;8.23;;;4.00;;
11767;SDS011;5941;57.652;12.514;2023-01-20T02:57:50;8.97;;;4.23;;
11767;SDS011;5941;57.652;12.514;2023-01-20T03:00:22;7.60;;;4.43;;
11767;SDS011;5941;57.652;12.514;2023-01-20T03:02:50;3.97;;;3.40;;
11767;SDS011;5941;57.652;12.514;2023-01-20T03:05:19;3.70;;;3.40;;
11767;SDS011;5941;57.652;12.514;2023-01-20T03:07:47;4.47;;;3.70;;
11767;SDS011;5941;57.652;12.514;2023-01-20T03:10:15;5.30;;;3.50;;
11767;SDS011;5941;57.652;12.514;2023-01-20T03:12:53;4.33;;;3.60;;
11767;SDS011;5941;57.652;12.514;2023-01-20T03:15:21;4.17;;;3.77;;
11767;SDS011;5941;57.652;12.514;2023-01-20T03:17:49;4.53;;;3.70;;
11767;SDS011;5941;57.652;12.514;2023-01-20T03:20:15;4.47;;;3.73;;
11767;SDS011;5941;57.652;12.514;2023-01-20T03:22:41;4.50;;;3.77;;
11767;SDS011;5941;57.652;12.514;2023-01-20T03:25:08;4.53;;;3.70;;
11767;SDS011;5941;57.652;12.514;2023-01-20T03:27:35;3.73;;;3.30;;
11767;SDS011;5941;57.652;12.514;2023-01-20T03:30:01;4.30;;;3.90;;
11767;SDS011;5941;57.652;12.514;2023-01-20T03:32:27;4.90;;;3.60;;
11767;SDS011;5941;57.652;12.514;2023-01-20T03:34:55;3.90;;;3.47;;
11767;SDS011;5941;57.652;12.514;2023-01-20T03:37:21;3.90;;;3.40;;
11767;SDS011;5941;57.652;12.514;2023-01-20T03:39:47;4.43;;;3.17;;
11767;SDS011;5941;57.652;12.514;2023-01-20T03:42:36;4.53;;;3.50;;
11767;SDS011;5941;57.652;12.514;2023-01-20T03:45:04;4.83;;;3.97;;
11767;SDS011;5941;57.652;12.514;2023-01-20T03:47:35;5.37;;;4.00;;
11767;SDS011;5941;57.652;12.514;2023-01-20T03:52:40;4.67;;;3.67;;
11767;SDS011;5941;57.652;12.514;2023-01-20T03:55:29;4.77;;;3.60;;
11767;SDS011;5941;57.652;12.514;2023-01-20T03:57:59;4.70;;;3.63;;
11767;SDS011;5941;57.652;12.514;2023-01-20T04:00:28;4.60;;;3.50;;
11767;SDS011;5941;57.652;12.514;2023-01-20T04:02:54;4.40;;;3.67;;
11767;SDS011;5941;57.652;12.514;2023-01-20T04:05:22;5.77;;;4.50;;
11767;SDS011;5941;57.652;12.514;2023-01-20T04:07:48;5.90;;;3.97;;
11767;SDS011;5941;57.652;12.514;2023-01-20T04:10:14;5.97;;;4.70;;
11767;SDS011;5941;57.652;12.514;2023-01-20T04:12:41;5.63;;;4.80;;
11767;SDS011;5941;57.652;12.514;2023-01-20T04:15:07;5.77;;;4.97;;
11767;SDS011;5941;57.652;12.514;2023-01-20T04:17:35;5.30;;;4.27;;
11767;SDS011;5941;57.652;12.514;2023-01-20T04:20:03;5.53;;;4.90;;
11767;SDS011;5941;57.652;12.514;2023-01-20T04:22:33;6.03;;;4.63;;
11767;SDS011;5941;57.652;12.514;2023-01-20T04:27:38;6.13;;;4.93;;
11767;SDS011;5941;57.652;12.514;2023-01-20T04:30:04;7.27;;;5.30;;
11767;SDS011;5941;57.652;12.514;2023-01-20T04:32:31;7.43;;;5.50;;
11767;SDS011;5941;57.652;12.514;2023-01-20T04:34:56;6.90;;;5.40;;
11767;SDS011;5941;57.652;12.514;2023-01-20T04:37:22;9.17;;;6.03;;
11767;SDS011;5941;57.652;12.514;2023-01-20T04:39:50;6.70;;;5.33;;
11767;SDS011;5941;57.652;12.514;2023-01-20T04:42:16;5.83;;;5.00;;
11767;SDS011;5941;57.652;12.514;2023-01-20T04:44:41;8.07;;;5.57;;
11767;SDS011;5941;57.652;12.514;2023-01-20T04:47:07;7.27;;;5.10;;
11767;SDS011;5941;57.652;12.514;2023-01-20T04:49:33;5.40;;;4.43;;
11767;SDS011;5941;57.652;12.514;2023-01-20T04:51:59;5.93;;;4.63;;
11767;SDS011;5941;57.652;12.514;2023-01-20T04:54:25;4.67;;;3.93;;
11767;SDS011;5941;57.652;12.514;2023-01-20T04:56:51;5.17;;;4.00;;
11767;SDS011;5941;57.652;12.514;2023-01-20T04:59:17;7.67;;;4.50;;
11767;SDS011;5941;57.652;12.514;2023-01-20T05:01:44;6.33;;;4.70;;
11767;SDS011;5941;57.652;12.514;2023-01-20T05:04:10;5.17;;;4.27;;
11767;SDS011;5941;57.652;12.514;2023-01-20T05:06:36;4.80;;;4.20;;
11767;SDS011;5941;57.652;12.514;2023-01-20T05:09:02;5.77;;;4.60;;
11767;SDS011;5941;57.652;12.514;2023-01-20T05:11:28;5.60;;;4.30;;
11767;SDS011;5941;57.652;12.514;2023-01-20T05:13:54;7.33;;;5.07;;
11767;SDS011;5941;57.652;12.514;2023-01-20T05:16:20;5.13;;;4.63;;
11767;SDS011;5941;57.652;12.514;2023-01-20T05:18:49;6.00;;;4.83;;
11767;SDS011;5941;57.652;12.514;2023-01-20T05:21:15;5.57;;;4.80;;
11767;SDS011;5941;57.652;12.514;2023-01-20T05:23:41;8.17;;;5.50;;
11767;SDS011;5941;57.652;12.514;2023-01-20T05:26:07;7.30;;;5.07;;
11767;SDS011;5941;57.652;12.514;2023-01-20T05:28:35;9.17;;;6.00;;
11767;SDS011;5941;57.652;12.514;2023-01-20T05:31:01;7.83;;;5.53;;
11767;SDS011;5941;57.652;12.514;2023-01-20T05:33:27;8.53;;;6.20;;
11767;SDS011;5941;57.652;12.514;2023-01-20T05:35:53;11.27;;;7.10;;
11767;SDS011;5941;57.652;12.514;2023-01-20T05:38:18;9.77;;;6.77;;
11767;SDS011;5941;57.652;12.514;2023-01-20T05:40:44;9.20;;;6.17;;
11767;SDS011;5941;57.652;12.514;2023-01-20T05:43:10;11.80;;;6.40;;
11767;SDS011;5941;57.652;12.514;2023-01-20T05:45:36;11.17;;;6.30;;
11767;SDS011;5941;57.652;12.514;2023-01-20T05:48:02;8.43;;;6.40;;
11767;SDS011;5941;57.652;12.514;2023-01-20T05:50:29;12.17;;;6.47;;
11767;SDS011;5941;57.652;12.514;2023-01-20T05:52:55;9.93;;;6.37;;
11767;SDS011;5941;57.652;12.514;2023-01-20T05:55:21;9.37;;;6.50;;
11767;SDS011;5941;57.652;12.514;2023-01-20T05:57:47;9.07;;;6.40;;
11767;SDS011;5941;57.652;12.514;2023-01-20T06:00:13;9.53;;;6.40;;
11767;SDS011;5941;57.652;12.514;2023-01-20T06:02:42;9.83;;;7.03;;
11767;SDS011;5941;57.652;12.514;2023-01-20T06:05:08;10.27;;;6.67;;
11767;SDS011;5941;57.652;12.514;2023-01-20T06:07:34;10.97;;;7.27;;
11767;SDS011;5941;57.652;12.514;2023-01-20T06:10:00;13.27;;;7.73;;
11767;SDS011;5941;57.652;12.514;2023-01-20T06:12:26;13.80;;;7.70;;
11767;SDS011;5941;57.652;12.514;2023-01-20T06:14:52;10.23;;;7.37;;
11767;SDS011;5941;57.652;12.514;2023-01-20T06:17:18;14.57;;;7.60;;
11767;SDS011;5941;57.652;12.514;2023-01-20T06:19:44;11.90;;;7.37;;
11767;SDS011;5941;57.652;12.514;2023-01-20T06:22:13;11.47;;;6.97;;
11767;SDS011;5941;57.652;12.514;2023-01-20T06:24:39;10.80;;;7.10;;
11767;SDS011;5941;57.652;12.514;2023-01-20T06:27:05;10.90;;;7.47;;
11767;SDS011;5941;57.652;12.514;2023-01-20T06:29:31;12.53;;;7.87;;
11767;SDS011;5941;57.652;12.514;2023-01-20T06:31:57;12.43;;;7.90;;
11767;SDS011;5941;57.652;12.514;2023-01-20T06:34:23;12.17;;;7.37;;
11767;SDS011;5941;57.652;12.514;2023-01-20T06:36:49;12.77;;;7.63;;
11767;SDS011;5941;57.652;12.514;2023-01-20T06:39:15;11.67;;;7.40;;
11767;SDS011;5941;57.652;12.514;2023-01-20T06:41:41;10.73;;;7.10;;
11767;SDS011;5941;57.652;12.514;2023-01-20T06:44:07;12.03;;;7.30;;
11767;SDS011;5941;57.652;12.514;2023-01-20T06:46:33;12.03;;;7.20;;
11767;SDS011;5941;57.652;12.514;2023-01-20T06:48:59;9.17;;;6.57;;
11767;SDS011;5941;57.652;12.514;2023-01-20T06:51:25;11.13;;;7.37;;
11767;SDS011;5941;57.652;12.514;2023-01-20T06:53:52;11.83;;;7.13;;
11767;SDS011;5941;57.652;12.514;2023-01-20T06:56:18;10.13;;;6.93;;
11767;SDS011;5941;57.652;12.514;2023-01-20T06:58:44;12.67;;;7.00;;
11767;SDS011;5941;57.652;12.514;2023-01-20T07:01:11;10.73;;;6.67;;
11767;SDS011;5941;57.652;12.514;2023-01-20T07:03:37;10.63;;;6.83;;
11767;SDS011;5941;57.652;12.514;2023-01-20T07:06:04;8.73;;;6.30;;
11767;SDS011;5941;57.652;12.514;2023-01-20T07:08:32;9.40;;;5.60;;
11767;SDS011;5941;57.652;12.514;2023-01-20T07:10:58;10.03;;;6.00;;
11767;SDS011;5941;57.652;12.514;2023-01-20T07:13:23;11.03;;;7.20;;
11767;SDS011;5941;57.652;12.514;2023-01-20T07:15:49;10.97;;;7.33;;
11767;SDS011;5941;57.652;12.514;2023-01-20T07:18:15;11.77;;;6.60;;
11767;SDS011;5941;57.652;12.514;2023-01-20T07:20:41;10.67;;;7.03;;
11767;SDS011;5941;57.652;12.514;2023-01-20T07:23:07;12.13;;;8.07;;
11767;SDS011;5941;57.652;12.514;2023-01-20T07:25:33;13.87;;;9.17;;
11767;SDS011;5941;57.652;12.514;2023-01-20T07:28:02;12.13;;;7.87;;
11767;SDS011;5941;57.652;12.514;2023-01-20T07:30:28;11.23;;;7.00;;
11767;SDS011;5941;57.652;12.514;2023-01-20T07:32:54;11.57;;;7.50;;
11767;SDS011;5941;57.652;12.514;2023-01-20T07:35:20;14.03;;;7.90;;
11767;SDS011;5941;57.652;12.514;2023-01-20T07:37:46;12.23;;;7.07;;
11767;SDS011;5941;57.652;12.514;2023-01-20T07:40:12;12.07;;;8.00;;
11767;SDS011;5941;57.652;12.514;2023-01-20T07:42:38;14.00;;;7.90;;
11767;SDS011;5941;57.652;12.514;2023-01-20T07:45:04;12.37;;;7.03;;
11767;SDS011;5941;57.652;12.514;2023-01-20T07:47:30;10.87;;;7.23;;
11767;SDS011;5941;57.652;12.514;2023-01-20T07:49:56;11.30;;;7.17;;
11767;SDS011;5941;57.652;12.514;2023-01-20T07:52:22;11.70;;;7.27;;
11767;SDS011;5941;57.652;12.514;2023-01-20T07:54:48;10.33;;;6.63;;
11767;SDS011;5941;57.652;12.514;2023-01-20T07:57:14;10.57;;;7.03;;
11767;SDS011;5941;57.652;12.514;2023-01-20T07:59:40;9.20;;;6.93;;
11767;SDS011;5941;57.652;12.514;2023-01-20T08:02:07;12.30;;;7.57;;
11767;SDS011;5941;57.652;12.514;2023-01-20T08:04:33;9.90;;;7.53;;
11767;SDS011;5941;57.652;12.514;2023-01-20T08:06:59;8.73;;;6.43;;
11767;SDS011;5941;57.652;12.514;2023-01-20T08:09:25;9.40;;;6.57;;
11767;SDS011;5941;57.652;12.514;2023-01-20T08:11:51;10.87;;;6.83;;
11767;SDS011;5941;57.652;12.514;2023-01-20T08:14:17;9.93;;;6.93;;
11767;SDS011;5941;57.652;12.514;2023-01-20T08:16:43;9.50;;;6.33;;
11767;SDS011;5941;57.652;12.514;2023-01-20T08:19:09;12.13;;;7.13;;
11767;SDS011;5941;57.652;12.514;2023-01-20T08:21:35;11.00;;;6.47;;
11767;SDS011;5941;57.652;12.514;2023-01-20T08:24:01;10.60;;;7.00;;
11767;SDS011;5941;57.652;12.514;2023-01-20T08:26:31;11.13;;;6.93;;
11767;SDS011;5941;57.652;12.514;2023-01-20T08:29:01;10.63;;;6.67;;
11767;SDS011;5941;57.652;12.514;2023-01-20T08:31:27;11.70;;;6.53;;
11767;SDS011;5941;57.652;12.514;2023-01-20T08:33:54;14.50;;;7.10;;
11767;SDS011;5941;57.652;12.514;2023-01-20T08:36:21;12.40;;;7.17;;
11767;SDS011;5941;57.652;12.514;2023-01-20T08:38:47;11.97;;;7.37;;
11767;SDS011;5941;57.652;12.514;2023-01-20T08:41:15;13.70;;;8.17;;
11767;SDS011;5941;57.652;12.514;2023-01-20T08:43:42;13.20;;;7.97;;
11767;SDS011;5941;57.652;12.514;2023-01-20T08:46:09;13.23;;;8.07;;
11767;SDS011;5941;57.652;12.514;2023-01-20T08:48:36;13.23;;;8.33;;
11767;SDS011;5941;57.652;12.514;2023-01-20T08:51:06;15.63;;;8.27;;
11767;SDS011;5941;57.652;12.514;2023-01-20T08:53:33;12.03;;;7.53;;
11767;SDS011;5941;57.652;12.514;2023-01-20T08:56:00;12.57;;;7.97;;
11767;SDS011;5941;57.652;12.514;2023-01-20T08:58:26;14.10;;;8.33;;
11767;SDS011;5941;57.652;12.514;2023-01-20T09:00:53;13.30;;;7.87;;
11767;SDS011;5941;57.652;12.514;2023-01-20T09:03:19;12.97;;;7.63;;
11767;SDS011;5941;57.652;12.514;2023-01-20T09:05:45;17.00;;;8.63;;
11767;SDS011;5941;57.652;12.514;2023-01-20T09:08:11;15.40;;;8.07;;
11767;SDS011;5941;57.652;12.514;2023-01-20T09:10:38;12.70;;;7.57;;
11767;SDS011;5941;57.652;12.514;2023-01-20T09:13:04;12.50;;;7.93;;
11767;SDS011;5941;57.652;12.514;2023-01-20T09:15:30;12.73;;;7.23;;
11767;SDS011;5941;57.652;12.514;2023-01-20T09:17:56;13.33;;;7.87;;
11767;SDS011;5941;57.652;12.514;2023-01-20T09:20:23;17.20;;;8.17;;
11767;SDS011;5941;57.652;12.514;2023-01-20T09:22:49;14.87;;;8.53;;
11767;SDS011;5941;57.652;12.514;2023-01-20T09:25:15;15.97;;;8.10;;
11767;SDS011;5941;57.652;12.514;2023-01-20T09:27:41;12.73;;;7.77;;
11767;SDS011;5941;57.652;12.514;2023-01-20T09:30:07;13.20;;;7.93;;
11767;SDS011;5941;57.652;12.514;2023-01-20T09:32:34;15.40;;;7.80;;
11767;SDS011;5941;57.652;12.514;2023-01-20T09:34:59;14.07;;;7.77;;
11767;SDS011;5941;57.652;12.514;2023-01-20T09:37:25;10.10;;;6.30;;
11767;SDS011;5941;57.652;12.514;2023-01-20T09:40:12;14.33;;;7.97;;
11767;SDS011;5941;57.652;12.514;2023-01-20T09:43:10;15.10;;;7.63;;
11767;SDS011;5941;57.652;12.514;2023-01-20T09:46:00;13.60;;;7.77;;
11767;SDS011;5941;57.652;12.514;2023-01-20T09:48:37;14.20;;;7.90;;
11767;SDS011;5941;57.652;12.514;2023-01-20T09:51:37;14.17;;;7.57;;
11767;SDS011;5941;57.652;12.514;2023-01-20T09:54:24;13.53;;;7.30;;
11767;SDS011;5941;57.652;12.514;2023-01-20T09:56:53;16.07;;;7.90;;
11767;SDS011;5941;57.652;12.514;2023-01-20T09:59:25;14.50;;;7.53;;
11767;SDS011;5941;57.652;12.514;2023-01-20T10:01:55;18.40;;;9.40;;
11767;SDS011;5941;57.652;12.514;2023-01-20T10:04:23;15.40;;;8.60;;
11767;SDS011;5941;57.652;12.514;2023-01-20T10:06:55;18.33;;;9.57;;
11767;SDS011;5941;57.652;12.514;2023-01-20T10:11:51;19.20;;;9.83;;
11767;SDS011;5941;57.652;12.514;2023-01-20T10:14:21;18.87;;;9.90;;
11767;SDS011;5941;57.652;12.514;2023-01-20T10:16:51;16.80;;;8.83;;
11767;SDS011;5941;57.652;12.514;2023-01-20T10:19:20;17.13;;;9.07;;
11767;SDS011;5941;57.652;12.514;2023-01-20T10:21:52;14.57;;;8.00;;
11767;SDS011;5941;57.652;12.514;2023-01-20T10:24:23;14.03;;;7.97;;
11767;SDS011;5941;57.652;12.514;2023-01-20T10:26:54;12.23;;;7.50;;
11767;SDS011;5941;57.652;12.514;2023-01-20T10:29:26;14.50;;;7.70;;
11767;SDS011;5941;57.652;12.514;2023-01-20T10:32:01;13.50;;;7.33;;
11767;SDS011;5941;57.652;12.514;2023-01-20T10:34:36;12.40;;;7.30;;
11767;SDS011;5941;57.652;12.514;2023-01-20T10:37:04;9.57;;;6.07;;
11767;SDS011;5941;57.652;12.514;2023-01-20T10:39:37;12.57;;;6.60;;
11767;SDS011;5941;57.652;12.514;2023-01-20T10:42:09;12.43;;;6.60;;
11767;SDS011;5941;57.652;12.514;2023-01-20T10:44:35;10.40;;;6.70;;
11767;SDS011;5941;57.652;12.514;2023-01-20T10:57:40;10.57;;;6.60;;
11767;SDS011;5941;57.652;12.514;2023-01-20T11:00:08;10.67;;;6.33;;
11767;SDS011;5941;57.652;12.514;2023-01-20T11:02:41;10.70;;;6.30;;
11767;SDS011;5941;57.652;12.514;2023-01-20T11:05:13;11.40;;;6.90;;
11767;SDS011;5941;57.652;12.514;2023-01-20T11:07:41;14.10;;;6.73;;
11767;SDS011;5941;57.652;12.514;2023-01-20T11:10:12;11.90;;;6.93;;
11767;SDS011;5941;57.652;12.514;2023-01-20T11:12:39;11.43;;;7.03;;
11767;SDS011;5941;57.652;12.514;2023-01-20T11:15:13;11.60;;;7.33;;
11767;SDS011;5941;57.652;12.514;2023-01-20T11:17:41;11.23;;;7.00;;
11767;SDS011;5941;57.652;12.514;2023-01-20T11:20:12;10.10;;;6.37;;
11767;SDS011;5941;57.652;12.514;2023-01-20T11:22:43;12.43;;;7.10;;
11767;SDS011;5941;57.652;12.514;2023-01-20T11:25:19;13.13;;;6.97;;
11767;SDS011;5941;57.652;12.514;2023-01-20T11:27:47;12.40;;;7.17;;
11767;SDS011;5941;57.652;12.514;2023-01-20T11:30:21;12.13;;;7.33;;
11767;SDS011;5941;57.652;12.514;2023-01-20T11:33:06;13.27;;;7.10;;
11767;SDS011;5941;57.652;12.514;2023-01-20T11:35:32;12.50;;;7.17;;
11767;SDS011;5941;57.652;12.514;2023-01-20T11:37:59;15.00;;;8.13;;
11767;SDS011;5941;57.652;12.514;2023-01-20T11:40:26;13.03;;;7.37;;
11767;SDS011;5941;57.652;12.514;2023-01-20T11:42:53;14.80;;;7.23;;
11767;SDS011;5941;57.652;12.514;2023-01-20T11:45:23;13.33;;;7.03;;
11767;SDS011;5941;57.652;12.514;2023-01-20T11:47:57;11.37;;;6.77;;
11767;SDS011;5941;57.652;12.514;2023-01-20T11:50:26;13.30;;;8.07;;
11767;SDS011;5941;57.652;12.514;2023-01-20T11:52:52;11.43;;;6.70;;
11767;SDS011;5941;57.652;12.514;2023-01-20T11:55:36;12.07;;;7.30;;
11767;SDS011;5941;57.652;12.514;2023-01-20T11:58:11;11.47;;;6.07;;
11767;SDS011;5941;57.652;12.514;2023-01-20T12:00:42;12.70;;;7.37;;
11767;SDS011;5941;57.652;12.514;2023-01-20T12:08:26;10.97;;;6.87;;
11767;SDS011;5941;57.652;12.514;2023-01-20T12:10:54;12.47;;;7.27;;
11767;SDS011;5941;57.652;12.514;2023-01-20T12:13:22;10.40;;;6.67;;
11767;SDS011;5941;57.652;12.514;2023-01-20T12:15:50;9.17;;;5.87;;
11767;SDS011;5941;57.652;12.514;2023-01-20T12:18:37;12.30;;;6.83;;
11767;SDS011;5941;57.652;12.514;2023-01-20T12:21:09;9.13;;;5.63;;
11767;SDS011;5941;57.652;12.514;2023-01-20T12:26:11;8.30;;;5.17;;
11767;SDS011;5941;57.652;12.514;2023-01-20T12:28:45;8.60;;;5.80;;
11767;SDS011;5941;57.652;12.514;2023-01-20T12:31:15;9.03;;;6.03;;
11767;SDS011;5941;57.652;12.514;2023-01-20T12:33:44;8.03;;;5.40;;
11767;SDS011;5941;57.652;12.514;2023-01-20T12:36:15;7.27;;;5.33;;
11767;SDS011;5941;57.652;12.514;2023-01-20T12:41:30;9.43;;;6.17;;
11767;SDS011;5941;57.652;12.514;2023-01-20T12:46:45;7.37;;;5.40;;
11767;SDS011;5941;57.652;12.514;2023-01-20T12:49:27;7.87;;;5.70;;
11767;SDS011;5941;57.652;12.514;2023-01-20T12:55:11;6.80;;;4.80;;
11767;SDS011;5941;57.652;12.514;2023-01-20T13:00:12;7.03;;;4.73;;
11767;SDS011;5941;57.652;12.514;2023-01-20T13:08:12;7.93;;;4.90;;
11767;SDS011;5941;57.652;12.514;2023-01-20T13:15:36;6.10;;;4.40;;
11767;SDS011;5941;57.652;12.514;2023-01-20T13:20:32;5.10;;;4.07;;
11767;SDS011;5941;57.652;12.514;2023-01-20T13:23:00;4.90;;;4.00;;
11767;SDS011;5941;57.652;12.514;2023-01-20T13:25:27;7.27;;;4.40;;
11767;SDS011;5941;57.652;12.514;2023-01-20T13:27:54;4.77;;;3.47;;
11767;SDS011;5941;57.652;12.514;2023-01-20T13:33:02;4.93;;;3.40;;
11767;SDS011;5941;57.652;12.514;2023-01-20T13:37:55;4.10;;;3.50;;
11767;SDS011;5941;57.652;12.514;2023-01-20T13:40:45;4.43;;;3.43;;
11767;SDS011;5941;57.652;12.514;2023-01-20T13:46:35;4.17;;;3.60;;
11767;SDS011;5941;57.652;12.514;2023-01-20T13:51:46;3.57;;;3.27;;
11767;SDS011;5941;57.652;12.514;2023-01-20T13:56:58;3.57;;;3.20;;
11767;SDS011;5941;57.652;12.514;2023-01-20T13:59:38;4.03;;;3.20;;
11767;SDS011;5941;57.652;12.514;2023-01-20T14:02:26;3.63;;;3.27;;
11767;SDS011;5941;57.652;12.514;2023-01-20T14:04:50;3.53;;;3.13;;
11767;SDS011;5941;57.652;12.514;2023-01-20T14:07:23;3.63;;;3.33;;
11767;SDS011;5941;57.652;12.514;2023-01-20T14:09:53;4.13;;;3.50;;
11767;SDS011;5941;57.652;12.514;2023-01-20T14:12:19;3.37;;;3.07;;
11767;SDS011;5941;57.652;12.514;2023-01-20T14:14:45;4.03;;;3.07;;
11767;SDS011;5941;57.652;12.514;2023-01-20T14:17:16;3.43;;;2.87;;
11767;SDS011;5941;57.652;12.514;2023-01-20T14:19:48;3.03;;;2.73;;
11767;SDS011;5941;57.652;12.514;2023-01-20T14:22:25;3.60;;;3.13;;
11767;SDS011;5941;57.652;12.514;2023-01-20T14:24:54;3.30;;;3.00;;
11767;SDS011;5941;57.652;12.514;2023-01-20T14:27:30;2.97;;;2.70;;
11767;SDS011;5941;57.652;12.514;2023-01-20T14:32:57;3.03;;;2.73;;
11767;SDS011;5941;57.652;12.514;2023-01-20T14:35:27;2.93;;;2.63;;
11767;SDS011;5941;57.652;12.514;2023-01-20T14:37:53;3.10;;;2.80;;
11767;SDS011;5941;57.652;12.514;2023-01-20T14:40:24;2.70;;;2.30;;
11767;SDS011;5941;57.652;12.514;2023-01-20T14:42:57;3.13;;;2.83;;
11767;SDS011;5941;57.652;12.514;2023-01-20T14:45:24;3.47;;;2.70;;
11767;SDS011;5941;57.652;12.514;2023-01-20T14:47:52;3.40;;;3.00;;
11767;SDS011;5941;57.652;12.514;2023-01-20T14:50:18;2.80;;;2.60;;
11767;SDS011;5941;57.652;12.514;2023-01-20T14:52:44;2.83;;;2.43;;
11767;SDS011;5941;57.652;12.514;2023-01-20T14:57:52;2.67;;;2.47;;
11767;SDS011;5941;57.652;12.514;2023-01-20T15:00:22;3.30;;;3.00;;
11767;SDS011;5941;57.652;12.514;2023-01-20T15:03:31;3.27;;;2.77;;
11767;SDS011;5941;57.652;12.514;2023-01-20T15:05:50;2.97;;;2.53;;
11767;SDS011;5941;57.652;12.514;2023-01-20T15:08:18;3.03;;;2.77;;
11767;SDS011;5941;57.652;12.514;2023-01-20T15:11:10;3.30;;;3.00;;
11767;SDS011;5941;57.652;12.514;2023-01-20T15:13:36;3.47;;;3.00;;
11767;SDS011;5941;57.652;12.514;2023-01-20T15:18:37;3.50;;;3.20;;
11767;SDS011;5941;57.652;12.514;2023-01-20T15:21:37;4.03;;;3.30;;
11767;SDS011;5941;57.652;12.514;2023-01-20T15:24:05;5.60;;;3.90;;
11767;SDS011;5941;57.652;12.514;2023-01-20T15:26:31;5.60;;;4.10;;
11767;SDS011;5941;57.652;12.514;2023-01-20T15:28:58;5.63;;;3.90;;
11767;SDS011;5941;57.652;12.514;2023-01-20T15:31:24;3.80;;;3.40;;
11767;SDS011;5941;57.652;12.514;2023-01-20T15:33:50;4.73;;;3.13;;
11767;SDS011;5941;57.652;12.514;2023-01-20T15:36:26;3.50;;;3.00;;
11767;SDS011;5941;57.652;12.514;2023-01-20T15:38:52;2.87;;;2.60;;
11767;SDS011;5941;57.652;12.514;2023-01-20T15:41:18;3.23;;;2.77;;
11767;SDS011;5941;57.652;12.514;2023-01-20T15:43:44;3.20;;;2.73;;
11767;SDS011;5941;57.652;12.514;2023-01-20T15:46:11;3.57;;;2.83;;
11767;SDS011;5941;57.652;12.514;2023-01-20T15:48:37;3.10;;;2.67;;
11767;SDS011;5941;57.652;12.514;2023-01-20T15:51:03;3.43;;;2.83;;
11767;SDS011;5941;57.652;12.514;2023-01-20T15:53:31;3.03;;;2.73;;
11767;SDS011;5941;57.652;12.514;2023-01-20T15:55:57;3.43;;;3.13;;
11767;SDS011;5941;57.652;12.514;2023-01-20T15:58:28;3.67;;;2.73;;
11767;SDS011;5941;57.652;12.514;2023-01-20T16:00:55;3.93;;;3.23;;
11767;SDS011;5941;57.652;12.514;2023-01-20T16:03:22;3.50;;;2.90;;
11767;SDS011;5941;57.652;12.514;2023-01-20T16:05:49;3.47;;;3.17;;
11767;SDS011;5941;57.652;12.514;2023-01-20T16:08:16;3.87;;;3.13;;
11767;SDS011;5941;57.652;12.514;2023-01-20T16:10:42;3.83;;;3.43;;
11767;SDS011;5941;57.652;12.514;2023-01-20T16:13:08;3.47;;;3.17;;
11767;SDS011;5941;57.652;12.514;2023-01-20T16:15:35;4.23;;;3.30;;
11767;SDS011;5941;57.652;12.514;2023-01-20T16:18:01;4.83;;;3.60;;
11767;SDS011;5941;57.652;12.514;2023-01-20T16:20:27;5.00;;;3.77;;
11767;SDS011;5941;57.652;12.514;2023-01-20T16:22:53;4.77;;;3.87;;
11767;SDS011;5941;57.652;12.514;2023-01-20T16:25:20;4.00;;;3.43;;